Time;durP1;ratioP1;P1;durP2;ratioP2;P2;SDS_P1;SDS_P2;PMS_P1;PMS_P2;Temp;Humidity;BMP_temperature;BMP_pressure;BME280_temperature;BME280_humidity;BME280_pressure;Samples;Min_cycle;Max_cycle;Signal;HPM_P1;HPM_P2
2022/08/17 00:00:38;;;;;;;7.95;5.38;;;22.70;95.60;;;;;;4992924;28;20026;-79
2022/08/17 00:03:06;;;;;;;9.23;6.22;;;22.80;95.70;;;;;;4994004;28;20121;-79
2022/08/17 00:05:45;;;;;;;;;;;22.70;96.10;;;;;;4993359;28;20022;-79
2022/08/17 00:08:13;;;;;;;6.93;5.95;;;22.60;96.20;;;;;;4994057;28;19909;-79
2022/08/17 00:10:40;;;;;;;8.57;5.85;;;22.60;96.20;;;;;;4994139;28;20499;-79
2022/08/17 00:13:17;;;;;;;10.40;5.95;;;22.60;96.20;;;;;;4993992;28;20444;-79
2022/08/17 00:15:43;;;;;;;9.85;6.60;;;22.60;96.30;;;;;;4992573;28;20030;-78
2022/08/17 00:18:10;;;;;;;7.63;5.40;;;22.60;96.20;;;;;;4993816;28;20062;-79
2022/08/17 00:20:35;;;;;;;7.78;5.72;;;22.60;96.30;;;;;;4992515;28;20034;-80
2022/08/17 00:23:07;;;;;;;8.52;6.40;;;22.60;96.20;;;;;;4993982;28;20467;-80
2022/08/17 00:25:33;;;;;;;9.85;7.00;;;22.60;96.50;;;;;;4993729;28;20026;-79
2022/08/17 00:27:59;;;;;;;9.75;6.38;;;22.60;96.40;;;;;;4993579;28;20358;-79
2022/08/17 00:30:24;;;;;;;10.68;6.38;;;22.60;96.60;;;;;;4993393;28;20049;-79
2022/08/17 00:32:50;;;;;;;8.68;5.75;;;22.60;96.60;;;;;;4993559;28;20041;-77
2022/08/17 00:35:22;;;;;;;11.15;6.13;;;22.60;96.70;;;;;;4993868;28;20385;-79
2022/08/17 00:37:50;;;;;;;9.40;5.75;;;22.50;96.80;;;;;;4993764;28;20032;-79
2022/08/17 00:40:17;;;;;;;9.65;6.22;;;22.40;96.80;;;;;;4993210;28;20038;-80
2022/08/17 00:42:44;;;;;;;10.15;6.15;;;22.40;96.90;;;;;;4992124;28;20042;-79
2022/08/17 00:45:17;;;;;;;8.10;6.30;;;22.50;96.90;;;;;;4992944;28;20061;-76
2022/08/17 00:47:43;;;;;;;9.25;6.60;;;22.40;96.90;;;;;;4993153;28;20038;-78
2022/08/17 00:50:13;;;;;;;9.10;5.90;;;22.40;97.00;;;;;;4993442;28;20038;-78
2022/08/17 00:52:46;;;;;;;10.60;6.28;;;22.40;97.30;;;;;;4992040;28;20046;-79
2022/08/17 00:55:13;;;;;;;12.68;7.45;;;22.40;97.30;;;;;;4993027;28;20026;-79
2022/08/17 00:57:42;;;;;;;8.57;6.63;;;22.30;97.20;;;;;;4992961;28;20031;-79
2022/08/17 01:00:32;;;;;;;8.90;6.25;;;22.30;97.30;;;;;;4991571;28;20034;-79
2022/08/17 01:03:05;;;;;;;8.60;6.43;;;22.30;97.40;;;;;;4991776;28;20108;-79
2022/08/17 01:05:32;;;;;;;10.35;6.40;;;22.20;97.60;;;;;;4992809;28;20073;-77
2022/08/17 01:07:59;;;;;;;12.30;6.28;;;22.20;97.70;;;;;;4991894;28;20450;-79
2022/08/17 01:10:34;;;;;;;8.40;6.60;;;22.20;97.60;;;;;;4992588;28;20429;-77
2022/08/17 01:13:01;;;;;;;12.93;6.50;;;22.10;97.70;;;;;;4992676;28;20069;-77
2022/08/17 01:15:29;;;;;;;11.90;6.60;;;22.10;97.90;;;;;;4992476;28;20100;-79
2022/08/17 01:17:55;;;;;;;10.57;6.68;;;22.10;97.80;;;;;;4992916;28;20034;-79
2022/08/17 01:20:21;;;;;;;10.18;6.32;;;22.10;98.00;;;;;;4993115;28;20034;-78
2022/08/17 01:22:47;;;;;;;9.25;6.53;;;22.00;98.00;;;;;;4993650;28;20088;-78
2022/08/17 01:25:13;;;;;;;10.63;6.53;;;21.90;97.90;;;;;;4992244;28;20102;-78
2022/08/17 01:27:40;;;;;;;8.80;6.60;;;21.80;98.30;;;;;;4991331;28;20038;-79
2022/08/17 01:30:09;;;;;;;17.85;6.47;;;21.80;98.10;;;;;;4992279;28;20034;-80
2022/08/17 01:32:34;;;;;;;10.63;7.03;;;21.80;98.20;;;;;;4992357;28;20116;-78
2022/08/17 01:35:01;;;;;;;12.15;7.05;;;21.70;98.50;;;;;;4991400;28;20452;-78
2022/08/17 01:37:31;;;;;;;13.02;7.20;;;21.60;98.50;;;;;;4971624;28;20041;-80
2022/08/17 01:40:11;;;;;;;12.50;6.90;;;21.70;98.60;;;;;;4972564;28;20042;-79
2022/08/17 01:42:44;;;;;;;12.30;6.47;;;21.70;98.40;;;;;;4972763;28;20123;-79
2022/08/17 01:45:18;;;;;;;9.35;6.45;;;21.70;98.50;;;;;;4971529;28;20035;-79
2022/08/17 01:47:44;;;;;;;11.65;7.30;;;21.70;98.20;;;;;;4972798;28;20460;-79
2022/08/17 01:50:15;;;;;;;8.82;6.68;;;21.70;98.60;;;;;;4972714;28;20050;-79
2022/08/17 01:52:43;;;;;;;12.80;6.50;;;21.60;98.60;;;;;;4973109;28;20023;-78
2022/08/17 01:55:10;;;;;;;11.77;6.65;;;21.60;98.80;;;;;;4972284;28;20178;-79
2022/08/17 01:57:36;;;;;;;10.45;6.50;;;21.60;98.80;;;;;;4972255;28;20027;-78
2022/08/17 02:00:06;;;;;;;10.63;6.90;;;21.60;98.60;;;;;;4972473;28;20031;-80
2022/08/17 02:02:32;;;;;;;14.48;7.82;;;21.60;98.50;;;;;;4972467;28;20027;-79
2022/08/17 02:04:58;;;;;;;16.05;7.15;;;21.50;98.70;;;;;;4973101;28;20027;-79
2022/08/17 02:07:24;;;;;;;9.73;7.20;;;21.50;98.80;;;;;;4972354;28;20351;-79
2022/08/17 02:09:50;;;;;;;10.57;7.43;;;21.50;98.80;;;;;;4972044;28;20050;-80
2022/08/17 02:12:16;;;;;;;9.70;7.00;;;21.50;98.80;;;;;;4972253;28;20046;-80
2022/08/17 02:14:42;;;;;;;11.18;7.18;;;21.50;98.70;;;;;;4972066;28;20031;-79
2022/08/17 02:17:08;;;;;;;10.43;6.25;;;21.40;98.90;;;;;;4972747;28;20050;-79
2022/08/17 02:19:34;;;;;;;11.75;6.22;;;21.40;98.80;;;;;;4987895;28;20074;-80
2022/08/17 02:22:00;;;;;;;9.43;7.38;;;21.40;99.00;;;;;;4972318;28;20045;-79
2022/08/17 02:24:31;;;;;;;16.10;6.38;;;21.30;98.90;;;;;;4972280;28;20533;-80
2022/08/17 02:26:56;;;;;;;12.00;6.78;;;21.30;99.00;;;;;;4972282;28;20042;-79
2022/08/17 02:29:22;;;;;;;9.80;6.18;;;21.20;99.10;;;;;;4971005;28;20022;-80
2022/08/17 02:31:48;;;;;;;11.70;6.20;;;21.20;99.10;;;;;;4972459;28;20339;-80
2022/08/17 02:34:14;;;;;;;11.32;6.47;;;21.10;99.10;;;;;;4972091;28;20488;-80
2022/08/17 02:36:40;;;;;;;9.15;6.63;;;21.30;98.90;;;;;;4972196;28;20039;-79
2022/08/17 02:39:08;;;;;;;16.95;7.43;;;21.20;98.90;;;;;;4972345;28;20070;-79
2022/08/17 02:41:35;;;;;;;11.55;6.57;;;21.20;99.10;;;;;;4970965;28;20429;-80
2022/08/17 02:44:01;;;;;;;11.03;6.53;;;21.10;99.10;;;;;;4972758;28;20015;-79
2022/08/17 02:46:27;;;;;;;7.47;6.28;;;21.10;99.00;;;;;;4971986;28;20041;-79
2022/08/17 02:48:53;;;;;;;9.32;6.57;;;21.20;99.10;;;;;;4971833;28;20105;-79
2022/08/17 02:51:19;;;;;;;11.40;6.57;;;21.10;99.20;;;;;;4971941;28;20046;-79
2022/08/17 02:53:45;;;;;;;10.43;6.25;;;21.10;99.20;;;;;;4971906;28;20041;-80
2022/08/17 02:56:11;;;;;;;8.60;6.35;;;21.10;99.30;;;;;;4971975;28;20035;-79
2022/08/17 02:58:37;;;;;;;15.02;6.70;;;21.10;99.10;;;;;;4972442;28;20023;-80
2022/08/17 03:01:09;;;;;;;12.43;7.28;;;21.00;99.20;;;;;;4972267;28;20038;-80
2022/08/17 03:03:36;;;;;;;10.65;7.03;;;21.00;99.20;;;;;;4972646;28;20031;-79
2022/08/17 03:06:07;;;;;;;8.98;6.55;;;21.00;99.30;;;;;;4972347;28;20058;-79
2022/08/17 03:08:33;;;;;;;8.65;6.30;;;21.00;99.20;;;;;;4974138;28;20035;-79
2022/08/17 03:10:58;;;;;;;12.85;6.50;;;21.00;99.30;;;;;;4975187;28;20902;-79
2022/08/17 03:13:26;;;;;;;12.13;6.15;;;20.90;99.30;;;;;;4975999;28;20119;-79
2022/08/17 03:15:52;;;;;;;11.88;7.10;;;20.80;99.40;;;;;;4991078;28;20485;-79
2022/08/17 03:18:20;;;;;;;10.05;6.95;;;20.90;99.30;;;;;;4975990;28;20046;-79
2022/08/17 03:20:45;;;;;;;;;;;20.80;99.50;;;;;;4976026;28;20030;-78
2022/08/17 03:23:11;;;;;;;8.95;6.32;;;20.70;99.60;;;;;;4974425;28;19906;-78
2022/08/17 03:25:41;;;;;;;9.48;6.13;;;20.70;99.60;;;;;;4975934;28;20061;-80
2022/08/17 03:28:08;;;;;;;12.93;7.50;;;20.70;99.60;;;;;;4974277;28;20535;-79
2022/08/17 03:30:34;;;;;;;14.93;6.90;;;20.70;99.70;;;;;;4975079;28;20469;-79
2022/08/17 03:33:03;;;;;;;8.15;6.40;;;20.70;99.80;;;;;;4975386;28;20035;-79
2022/08/17 03:35:32;;;;;;;9.32;6.07;;;20.70;99.70;;;;;;4975581;28;20031;-79
2022/08/17 03:37:58;;;;;;;14.73;7.28;;;20.60;99.70;;;;;;4974783;28;20026;-79
2022/08/17 03:40:24;;;;;;;15.00;7.00;;;20.60;99.80;;;;;;4975179;28;20491;-79
2022/08/17 03:42:53;;;;;;;11.85;6.00;;;20.70;99.80;;;;;;4974345;28;20035;-79
2022/08/17 03:56:43;;;;;;;11.77;6.15;;;20.70;99.60;;;;;;4975011;28;20464;-79
2022/08/17 03:59:18;;;;;;;10.52;6.72;;;20.60;99.60;;;;;;4974740;28;20106;-77
2022/08/17 04:01:45;;;;;;;7.10;6.40;;;20.50;99.80;;;;;;4975246;28;20023;-79
2022/08/17 04:04:12;;;;;;;12.95;6.80;;;20.40;99.90;;;;;;4974655;28;20131;-80
2022/08/17 04:06:39;;;;;;;10.20;6.38;;;20.40;99.80;;;;;;4973497;28;20038;-79
2022/08/17 04:09:05;;;;;;;13.77;6.45;;;20.40;99.80;;;;;;4974237;28;20062;-78
2022/08/17 04:11:32;;;;;;;10.90;6.63;;;20.40;99.90;;;;;;4974377;28;20034;-79
2022/08/17 04:13:57;;;;;;;9.20;6.90;;;20.40;99.90;;;;;;4974791;28;20362;-79
2022/08/17 04:16:24;;;;;;;12.82;6.68;;;20.40;99.80;;;;;;4974446;28;20051;-79
2022/08/17 04:18:50;;;;;;;10.18;6.20;;;20.40;99.80;;;;;;4973797;28;20042;-80
2022/08/17 04:21:17;;;;;;;12.05;7.22;;;20.40;99.70;;;;;;4973135;28;20061;-80
2022/08/17 04:23:43;;;;;;;7.53;6.30;;;20.40;99.80;;;;;;4974081;28;20117;-79
2022/08/17 04:26:09;;;;;;;9.82;6.18;;;20.40;99.70;;;;;;4974620;28;20126;-78
2022/08/17 04:28:35;;;;;;;10.95;6.38;;;20.40;99.90;;;;;;4974110;28;20441;-79
2022/08/17 04:31:01;;;;;;;12.48;6.68;;;20.40;99.60;;;;;;4973134;28;20057;-79
2022/08/17 04:33:29;;;;;;;8.93;7.40;;;20.30;99.80;;;;;;4973992;28;20519;-79
2022/08/17 04:36:01;;;;;;;12.55;6.97;;;20.30;99.80;;;;;;4974052;28;20587;-80
2022/08/17 04:38:31;;;;;;;9.93;6.95;;;20.30;99.90;;;;;;4974116;28;20030;-80
2022/08/17 04:43:43;;;;;;;13.48;6.95;;;20.30;99.90;;;;;;4973669;28;20046;-80
2022/08/17 04:46:18;;;;;;;10.90;6.63;;;20.30;99.90;;;;;;4973753;28;20066;-79
2022/08/17 04:48:46;;;;;;;11.40;6.07;;;20.30;99.90;;;;;;4972439;28;20125;-79
2022/08/17 04:51:25;;;;;;;12.32;6.88;;;20.40;99.80;;;;;;4972506;28;20548;-79
2022/08/17 04:53:54;;;;;;;11.15;6.90;;;20.40;99.90;;;;;;4973428;28;20039;-79
2022/08/17 04:56:20;;;;;;;15.63;6.47;;;20.40;99.90;;;;;;4973300;28;20243;-79
2022/08/17 04:58:49;;;;;;;9.85;6.47;;;20.40;99.90;;;;;;4973923;28;20385;-79
2022/08/17 05:01:17;;;;;;;13.18;7.20;;;20.40;99.70;;;;;;4973609;28;20031;-81
2022/08/17 05:03:43;;;;;;;12.18;6.43;;;20.40;99.70;;;;;;4975188;28;20117;-79
2022/08/17 05:06:09;;;;;;;11.48;6.65;;;20.40;99.60;;;;;;4973708;28;20118;-78
2022/08/17 05:08:35;;;;;;;9.45;6.63;;;20.50;99.80;;;;;;4972142;28;20039;-79
2022/08/17 05:11:01;;;;;;;12.30;6.75;;;20.50;99.80;;;;;;4972986;28;20078;-79
2022/08/17 05:13:30;;;;;;;10.75;6.75;;;20.50;99.70;;;;;;4973581;28;20198;-77
2022/08/17 05:16:01;;;;;;;13.25;6.72;;;20.60;99.80;;;;;;4973518;28;20030;-80
2022/08/17 05:18:28;;;;;;;10.55;6.55;;;20.60;99.70;;;;;;4973184;28;20130;-80
2022/08/17 05:20:55;;;;;;;9.90;7.40;;;20.60;99.80;;;;;;4973093;28;20421;-79
2022/08/17 05:23:24;;;;;;;10.05;7.53;;;20.70;99.60;;;;;;4973436;28;20405;-78
2022/08/17 05:25:53;;;;;;;8.55;6.75;;;20.70;99.50;;;;;;4973429;28;20675;-79
2022/08/17 05:28:20;;;;;;;11.77;6.47;;;20.80;99.40;;;;;;4971943;28;20077;-80
2022/08/17 05:30:46;;;;;;;13.20;7.13;;;20.80;99.60;;;;;;4972147;28;20363;-79
2022/08/17 05:33:15;;;;;;;12.90;6.47;;;20.80;99.50;;;;;;4973050;28;20437;-79
2022/08/17 05:35:46;;;;;;;12.43;6.53;;;20.90;99.30;;;;;;4972706;28;20031;-79
2022/08/17 05:38:13;;;;;;;11.27;6.30;;;20.90;99.20;;;;;;4972859;28;20097;-78
2022/08/17 05:40:39;;;;;;;13.02;7.45;;;21.00;99.00;;;;;;4973068;28;20122;-80
2022/08/17 05:43:09;;;;;;;15.07;7.28;;;21.10;99.00;;;;;;4972752;28;20424;-78
2022/08/17 05:45:43;;;;;;;17.20;6.97;;;21.10;98.80;;;;;;4971757;28;20035;-79
2022/08/17 05:48:09;;;;;;;13.77;6.75;;;21.20;99.20;;;;;;4972655;28;20050;-80
2022/08/17 05:51:11;;;;;;;11.48;6.82;;;21.30;99.30;;;;;;4972670;28;20037;-79
2022/08/17 05:53:50;;;;;;;15.27;7.38;;;21.30;99.60;;;;;;4972674;28;20030;-78
2022/08/17 05:56:45;;;;;;;13.43;7.10;;;21.30;99.50;;;;;;4972498;28;20027;-78
2022/08/17 05:59:14;;;;;;;12.30;6.75;;;21.40;99.40;;;;;;4972442;28;20033;-80
2022/08/17 06:01:51;;;;;;;9.95;7.18;;;21.50;99.60;;;;;;4972859;28;20023;-79
2022/08/17 06:04:51;;;;;;;13.73;7.20;;;21.50;99.10;;;;;;4971650;28;20038;-80
2022/08/17 06:07:24;;;;;;;12.90;6.57;;;21.60;99.00;;;;;;4972077;28;20035;-79
2022/08/17 06:10:32;;;;;;;11.48;7.05;;;21.70;98.70;;;;;;4971890;28;20058;-80
2022/08/17 06:13:01;;;;;;;11.07;6.90;;;21.70;99.00;;;;;;4970759;28;20042;-79
2022/08/17 06:16:01;;;;;;;10.70;7.55;;;21.70;98.60;;;;;;4987339;28;20027;-78
2022/08/17 06:18:35;;;;;;;12.85;6.78;;;21.80;98.80;;;;;;4972111;28;20493;-79
2022/08/17 06:21:07;;;;;;;19.98;6.95;;;21.90;98.70;;;;;;4972218;28;20438;-80
2022/08/17 06:23:37;;;;;;;11.85;7.40;;;21.90;98.60;;;;;;4971774;28;20031;-78
2022/08/17 06:26:19;;;;;;;14.40;7.38;;;21.90;98.50;;;;;;4972603;28;20029;-79
2022/08/17 06:28:55;;;;;;;12.07;7.05;;;22.00;98.50;;;;;;4972662;28;20049;-78
2022/08/17 06:31:27;;;;;;;14.10;7.80;;;22.10;98.40;;;;;;4970832;28;20110;-79
2022/08/17 06:33:56;;;;;;;13.00;8.23;;;22.10;98.10;;;;;;4972191;28;20504;-79
2022/08/17 06:36:52;;;;;;;10.50;7.00;;;22.20;98.00;;;;;;4972187;28;20106;-77
2022/08/17 06:39:27;;;;;;;9.82;6.30;;;22.30;97.50;;;;;;4971942;28;20093;-78
2022/08/17 06:42:04;;;;;;;9.68;6.82;;;22.40;97.40;;;;;;4972745;28;20039;-78
2022/08/17 06:44:39;;;;;;;16.70;6.28;;;22.30;97.40;;;;;;4975979;28;20046;-77
2022/08/17 06:47:32;;;;;;;9.43;6.20;;;22.40;97.40;;;;;;4975141;28;20457;-78
2022/08/17 06:50:15;;;;;;;10.90;6.93;;;22.50;97.50;;;;;;4975081;28;20348;-77
2022/08/17 06:52:53;;;;;;;9.00;5.63;;;22.60;97.50;;;;;;4975802;28;20035;-78
2022/08/17 06:55:29;;;;;;;;;;;22.70;97.30;;;;;;4976293;28;20042;-79
2022/08/17 06:58:01;;;;;;;7.83;6.33;;;22.80;97.20;;;;;;4975618;28;19910;-78
2022/08/17 07:00:32;;;;;;;10.95;6.95;;;22.80;97.00;;;;;;4975476;28;20468;-77
2022/08/17 07:03:08;;;;;;;12.32;6.97;;;22.80;96.90;;;;;;4974896;28;20421;-79
2022/08/17 07:05:57;;;;;;;8.32;5.53;;;22.90;96.80;;;;;;4975380;28;20039;-80
2022/08/17 07:08:51;;;;;;;12.40;5.93;;;23.00;96.90;;;;;;4974428;28;20027;-79
2022/08/17 07:11:28;;;;;;;8.70;5.85;;;23.10;96.80;;;;;;4975351;28;20042;-78
2022/08/17 07:14:29;;;;;;;10.52;6.07;;;23.30;97.00;;;;;;4975604;28;20441;-79
2022/08/17 07:16:57;;;;;;;10.27;5.68;;;23.40;96.50;;;;;;4975388;28;20404;-79
2022/08/17 07:19:30;;;;;;;7.70;5.00;;;23.50;96.50;;;;;;4974216;28;20347;-78
2022/08/17 07:22:33;;;;;;;14.65;6.13;;;23.50;96.50;;;;;;4975536;28;20093;-77
2022/08/17 07:25:02;;;;;;;13.43;5.45;;;23.60;96.40;;;;;;4990271;28;20034;-78
2022/08/17 07:27:34;;;;;;;9.40;4.60;;;23.70;96.20;;;;;;4974972;28;20257;-78
2022/08/17 07:30:09;;;;;;;8.30;5.03;;;23.70;95.90;;;;;;4974878;28;20049;-78
2022/08/17 07:32:44;;;;;;;8.98;5.30;;;23.70;96.00;;;;;;4973770;28;20086;-78
2022/08/17 07:35:27;;;;;;;10.40;5.93;;;23.80;96.00;;;;;;4975039;28;20027;-77
2022/08/17 07:38:13;;;;;;;18.23;5.38;;;23.80;95.80;;;;;;4975092;28;20099;-79
2022/08/17 07:41:01;;;;;;;9.70;5.35;;;23.80;95.90;;;;;;4974593;28;20066;-78
2022/08/17 07:43:46;;;;;;;9.45;5.70;;;23.90;95.60;;;;;;4974632;28;20551;-78
2022/08/17 07:49:09;;;;;;;9.60;5.00;;;24.10;95.30;;;;;;4974603;28;20045;-78
2022/08/17 07:51:42;;;;;;;8.93;5.38;;;24.30;95.50;;;;;;4974696;28;20039;-77
2022/08/17 07:54:14;;;;;;;7.95;4.95;;;24.40;95.10;;;;;;4973432;28;20366;-77
2022/08/17 07:56:52;;;;;;;9.20;5.38;;;24.60;94.80;;;;;;4974706;28;20066;-78
2022/08/17 07:59:35;;;;;;;6.18;4.18;;;24.70;94.80;;;;;;4974158;28;20026;-78
2022/08/17 08:02:15;;;;;;;5.18;4.30;;;24.90;94.50;;;;;;4973686;28;20023;-77
2022/08/17 08:04:42;;;;;;;6.43;4.72;;;25.00;94.30;;;;;;4974387;28;20470;-78
2022/08/17 08:07:20;;;;;;;9.48;4.35;;;25.10;94.10;;;;;;4974398;28;20110;-77
2022/08/17 08:10:01;;;;;;;5.28;4.03;;;25.20;93.50;;;;;;4974134;28;20043;-79
2022/08/17 08:12:42;;;;;;;9.52;4.80;;;25.40;93.50;;;;;;4973305;28;20446;-78
2022/08/17 08:15:24;;;;;;;7.80;4.72;;;25.50;93.40;;;;;;4974224;28;20035;-77
2022/08/17 08:17:58;;;;;;;12.93;4.82;;;25.60;92.80;;;;;;4974024;28;20129;-77
2022/08/17 08:20:56;;;;;;;11.82;4.95;;;25.90;93.50;;;;;;4973053;28;20019;-79
2022/08/17 08:23:46;;;;;;;12.85;4.45;;;26.10;92.50;;;;;;4981270;28;20089;-79
2022/08/17 08:26:41;;;;;;;17.73;4.93;;;26.50;91.80;;;;;;4974216;28;20496;-77
2022/08/17 08:29:28;;;;;;;10.68;4.60;;;27.00;91.90;;;;;;4974408;28;20086;-79
2022/08/17 08:32:27;;;;;;;13.75;4.88;;;27.70;91.40;;;;;;4989115;28;20053;-79
2022/08/17 08:35:15;;;;;;;9.27;4.30;;;28.60;90.60;;;;;;4989171;28;20067;-79
2022/08/17 08:37:48;;;;;;;9.68;4.85;;;29.10;84.50;;;;;;4970144;28;20074;-79
2022/08/17 08:40:37;;;;;;;14.23;5.47;;;29.30;83.90;;;;;;4973854;28;20085;-80
2022/08/17 08:43:29;;;;;;;10.32;4.85;;;29.50;82.20;;;;;;4973761;28;20507;-79
2022/08/17 08:46:10;;;;;;;8.45;4.93;;;29.90;83.10;;;;;;4973542;28;20300;-79
2022/08/17 08:49:11;;;;;;;11.05;5.28;;;30.00;77.60;;;;;;4973770;28;20050;-79
2022/08/17 08:51:50;;;;;;;12.35;6.20;;;29.90;78.30;;;;;;4973756;28;20364;-80
2022/08/17 08:54:34;;;;;;;15.10;6.50;;;29.80;76.10;;;;;;4973418;28;20044;-80
2022/08/17 08:57:16;;;;;;;9.60;4.53;;;29.60;76.30;;;;;;4973299;28;20236;-80
2022/08/17 09:00:00;;;;;;;9.68;5.07;;;29.50;77.00;;;;;;4973450;28;20042;-80
2022/08/17 09:03:01;;;;;;;6.53;3.78;;;29.40;76.80;;;;;;4979317;28;20169;-80
2022/08/17 09:06:09;;;;;;;11.85;4.43;;;29.30;75.00;;;;;;4973143;28;20408;-81
2022/08/17 09:08:59;;;;;;;14.65;4.30;;;29.20;75.50;;;;;;4969759;28;20351;-80
2022/08/17 09:11:48;;;;;;;8.27;3.35;;;29.00;75.30;;;;;;4988333;28;20445;-80
2022/08/17 09:14:31;;;;;;;8.98;4.25;;;29.00;76.90;;;;;;4972243;28;20059;-80
2022/08/17 09:17:06;;;;;;;21.08;11.65;;;29.00;76.70;;;;;;4973326;28;20481;-81
2022/08/17 09:19:58;;;;;;;8.82;3.78;;;28.90;75.70;;;;;;4971737;28;20042;-80
2022/08/17 09:22:41;;;;;;;13.32;3.80;;;29.40;76.10;;;;;;4964447;28;20037;-79
2022/08/17 09:25:12;;;;;;;7.90;3.30;;;29.90;75.10;;;;;;4972606;28;20031;-81
2022/08/17 09:28:05;;;;;;;6.60;3.95;;;30.60;75.00;;;;;;4972357;28;20035;-78
2022/08/17 09:30:52;;;;;;;10.38;4.03;;;31.50;75.50;;;;;;4972443;28;20046;-79
2022/08/17 09:33:24;;;;;;;5.57;3.83;;;32.30;71.70;;;;;;4972763;28;20046;-78
2022/08/17 09:35:57;;;;;;;9.35;3.80;;;33.20;68.10;;;;;;4972673;28;20031;-77
2022/08/17 09:38:47;;;;;;;8.00;3.92;;;33.70;69.10;;;;;;4972935;28;20027;-79
2022/08/17 09:41:23;;;;;;;7.30;3.67;;;34.80;66.10;;;;;;4972350;28;20444;-78
2022/08/17 09:44:17;;;;;;;11.35;4.40;;;35.20;61.00;;;;;;4973225;28;20043;-78
2022/08/17 09:47:21;;;;;;;9.10;3.47;;;35.20;60.90;;;;;;4972496;28;20117;-78
2022/08/17 09:49:59;;;;;;;6.30;3.55;;;35.60;60.10;;;;;;4972339;28;20043;-79
2022/08/17 09:52:29;;;;;;;7.25;3.72;;;36.30;58.20;;;;;;4972177;28;20031;-79
2022/08/17 09:54:58;;;;;;;17.02;3.63;;;36.50;57.60;;;;;;4971163;28;20039;-77
2022/08/17 09:57:38;;;;;;;8.10;3.95;;;36.90;56.10;;;;;;4972143;28;20039;-78
2022/08/17 10:00:11;;;;;;;11.90;4.03;;;37.10;54.70;;;;;;4972408;28;20480;-78
2022/08/17 10:03:04;;;;;;;7.68;3.90;;;37.20;53.40;;;;;;4987307;28;20045;-78
2022/08/17 10:05:36;;;;;;;8.35;4.00;;;37.30;53.40;;;;;;4972256;28;20042;-79
2022/08/17 10:08:30;;;;;;;7.80;3.85;;;37.50;54.00;;;;;;4972393;28;20031;-79
2022/08/17 10:11:14;;;;;;;6.93;4.30;;;37.70;51.50;;;;;;4972314;28;20515;-78
2022/08/17 10:14:12;;;;;;;9.30;4.38;;;37.80;51.90;;;;;;4987338;28;20529;-79
2022/08/17 10:16:49;;;;;;;8.45;4.18;;;38.00;50.60;;;;;;4971541;28;20117;-78
2022/08/17 10:19:28;;;;;;;5.55;3.72;;;38.60;50.60;;;;;;4972183;28;20425;-78
2022/08/17 10:27:53;;;;;;;10.60;4.03;;;38.20;48.40;;;;;;4971864;28;20429;-78
2022/08/17 10:30:23;;;;;;;5.93;3.67;;;38.20;48.20;;;;;;4972060;28;20039;-80
2022/08/17 10:32:55;;;;;;;5.25;3.78;;;38.20;47.60;;;;;;4972337;28;20030;-79
2022/08/17 10:35:27;;;;;;;6.13;3.95;;;37.90;48.20;;;;;;4972281;28;20023;-79
2022/08/17 10:38:08;;;;;;;5.80;3.58;;;37.90;47.90;;;;;;4972326;28;20475;-77
2022/08/17 10:41:14;;;;;;;8.52;3.88;;;37.10;48.20;;;;;;4972156;28;20387;-79
2022/08/17 10:43:52;;;;;;;14.23;7.20;;;36.40;48.40;;;;;;4972343;28;20378;-79
2022/08/17 10:46:43;;;;;;;5.80;3.17;;;35.60;49.60;;;;;;4971835;28;20118;-78
2022/08/17 10:49:19;;;;;;;5.82;3.67;;;35.90;48.80;;;;;;4971971;28;20299;-78
2022/08/17 10:51:48;;;;;;;9.27;4.30;;;35.50;49.60;;;;;;4972012;28;20031;-78
2022/08/17 10:54:23;;;;;;;9.38;3.88;;;35.00;49.40;;;;;;4971857;28;20105;-79
2022/08/17 10:56:53;;;;;;;4.63;3.00;;;34.70;50.20;;;;;;4971904;28;20035;-78
2022/08/17 10:59:49;;;;;;;7.70;3.45;;;34.80;50.10;;;;;;4971759;28;20031;-79
2022/08/17 11:02:48;;;;;;;13.80;4.82;;;34.60;49.60;;;;;;4972007;28;20041;-78
2022/08/17 11:05:27;;;;;;;6.63;3.90;;;34.40;50.10;;;;;;4970639;28;20053;-78
2022/08/17 11:08:26;;;;;;;4.90;3.35;;;34.20;50.20;;;;;;4987289;28;20105;-79
2022/08/17 11:11:13;;;;;;;7.15;3.13;;;33.80;50.70;;;;;;4971486;28;20046;-78
2022/08/17 11:13:48;;;;;;;12.77;3.25;;;33.70;50.80;;;;;;4971717;28;20047;-77
2022/08/17 11:16:28;;;;;;;4.15;3.00;;;33.40;51.50;;;;;;4986844;28;20033;-78
2022/08/17 11:19:13;;;;;;;8.27;3.47;;;33.30;50.80;;;;;;4971783;28;20035;-79
2022/08/17 11:22:05;;;;;;;18.77;4.38;;;33.20;51.10;;;;;;4971752;28;20118;-77
2022/08/17 11:24:37;;;;;;;12.48;3.17;;;33.00;51.50;;;;;;4971423;28;20043;-78
2022/08/17 11:27:21;;;;;;;7.10;3.05;;;32.80;51.50;;;;;;4971567;28;20062;-78
2022/08/17 11:29:59;;;;;;;7.95;3.15;;;32.70;51.80;;;;;;4974989;28;20057;-78
2022/08/17 11:32:39;;;;;;;7.13;2.88;;;32.50;52.10;;;;;;4974105;28;20033;-79
2022/08/17 11:35:20;;;;;;;5.10;2.90;;;32.30;52.20;;;;;;4975404;28;20038;-79
2022/08/17 11:37:58;;;;;;;10.27;3.30;;;32.10;52.70;;;;;;4975184;28;20055;-78
2022/08/17 11:40:45;;;;;;;;;;;32.00;53.70;;;;;;4975341;28;20035;-80
2022/08/17 11:43:22;;;;;;;;;;;31.70;54.00;;;;;;4990731;28;19918;-80
2022/08/17 11:46:17;;;;;;;4.72;2.85;;;31.70;54.00;;;;;;4974833;28;19925;-79
2022/08/17 11:51:51;;;;;;;7.80;3.70;;;31.60;53.60;;;;;;4974764;28;20451;-79
2022/08/17 11:54:17;;;;;;;8.02;3.60;;;31.50;54.40;;;;;;4974820;28;20027;-79
2022/08/17 11:56:50;;;;;;;4.75;3.88;;;31.50;54.40;;;;;;4974504;28;20062;-80
2022/08/17 11:59:44;;;;;;;7.60;2.88;;;31.50;54.70;;;;;;4974892;28;20015;-79
2022/08/17 12:02:31;;;;;;;5.13;3.10;;;31.40;54.30;;;;;;4974196;28;20113;-77
2022/08/17 12:05:26;;;;;;;4.90;3.20;;;31.30;53.40;;;;;;4975191;28;20161;-78
2022/08/17 12:07:51;;;;;;;5.20;3.22;;;31.20;54.10;;;;;;4973724;28;20404;-78
2022/08/17 12:10:22;;;;;;;5.05;2.70;;;31.10;54.40;;;;;;4989357;28;20117;-79
2022/08/17 12:12:51;;;;;;;6.20;3.00;;;31.10;54.80;;;;;;4973329;28;20058;-80
2022/08/17 12:15:20;;;;;;;8.30;5.22;;;31.10;54.80;;;;;;4974282;28;20036;-79
2022/08/17 12:17:55;;;;;;;10.40;5.90;;;31.20;54.30;;;;;;4974228;28;20041;-78
2022/08/17 12:20:38;;;;;;;10.82;5.10;;;31.20;54.10;;;;;;4974057;28;20385;-78
2022/08/17 12:23:13;;;;;;;8.90;3.60;;;31.00;54.50;;;;;;4974640;28;20362;-79
2022/08/17 12:26:18;;;;;;;7.93;3.05;;;31.10;55.60;;;;;;4974527;28;20122;-78
2022/08/17 12:28:46;;;;;;;7.80;3.47;;;31.10;55.60;;;;;;4974110;28;20047;-77
2022/08/17 12:31:20;;;;;;;5.65;3.15;;;31.10;54.90;;;;;;4973866;28;20102;-77
2022/08/17 12:33:50;;;;;;;3.05;2.65;;;31.10;54.90;;;;;;4973776;28;20096;-77
2022/08/17 12:36:20;;;;;;;9.70;2.72;;;31.10;54.50;;;;;;4972817;28;20130;-78
2022/08/17 12:38:58;;;;;;;7.03;2.90;;;31.10;54.20;;;;;;4973772;28;20438;-77
2022/08/17 12:41:44;;;;;;;6.43;2.92;;;31.10;55.20;;;;;;4973459;28;20037;-76
2022/08/17 12:44:24;;;;;;;8.32;3.10;;;31.10;55.10;;;;;;4973909;28;20415;-76
2022/08/17 12:47:09;;;;;;;6.07;2.70;;;31.00;54.30;;;;;;4973050;28;20031;-78
2022/08/17 12:49:44;;;;;;;4.10;2.72;;;31.10;54.00;;;;;;4974297;28;20031;-79
2022/08/17 12:52:10;;;;;;;7.68;2.63;;;31.10;54.20;;;;;;4972751;28;20382;-77
2022/08/17 12:55:02;;;;;;;5.45;2.70;;;31.10;54.30;;;;;;4973953;28;20034;-78
2022/08/17 12:57:38;;;;;;;4.18;2.85;;;31.20;54.30;;;;;;4972516;28;20317;-78
2022/08/17 13:00:18;;;;;;;4.28;2.97;;;31.10;54.70;;;;;;4972390;28;20035;-78
2022/08/17 13:02:56;;;;;;;9.55;3.22;;;31.10;54.80;;;;;;4973589;28;20082;-76
2022/08/17 13:05:33;;;;;;;4.55;2.78;;;31.20;54.70;;;;;;4973474;28;20560;-77
2022/08/17 13:08:00;;;;;;;4.95;3.22;;;31.20;54.70;;;;;;4974222;28;20077;-77
2022/08/17 13:10:30;;;;;;;9.98;3.33;;;31.20;54.30;;;;;;4973398;28;20046;-77
2022/08/17 13:13:01;;;;;;;9.50;3.20;;;31.20;54.90;;;;;;4973173;28;20027;-77
2022/08/17 13:15:30;;;;;;;10.40;3.22;;;31.20;55.20;;;;;;4972471;28;20042;-77
2022/08/17 13:18:03;;;;;;;5.93;3.35;;;31.20;55.60;;;;;;4973511;28;20178;-76
2022/08/17 13:20:29;;;;;;;9.43;3.67;;;31.20;55.00;;;;;;4973106;28;20034;-78
2022/08/17 13:22:57;;;;;;;7.60;3.13;;;31.20;54.70;;;;;;4973511;28;20453;-78
2022/08/17 13:25:24;;;;;;;14.77;3.05;;;31.30;55.00;;;;;;4973016;28;20113;-78
2022/08/17 13:27:51;;;;;;;9.48;2.95;;;31.20;54.50;;;;;;4972514;28;20054;-79
2022/08/17 13:30:31;;;;;;;7.20;3.67;;;31.20;54.50;;;;;;4973049;28;20468;-78
2022/08/17 13:32:57;;;;;;;7.25;3.05;;;31.20;54.30;;;;;;4972986;28;20365;-78
2022/08/17 13:35:32;;;;;;;3.40;2.70;;;31.10;53.60;;;;;;4971800;28;20023;-77
2022/08/17 13:38:07;;;;;;;7.57;3.15;;;31.10;54.00;;;;;;4988522;28;20027;-78
2022/08/17 13:40:44;;;;;;;9.90;3.85;;;31.10;54.50;;;;;;4972774;28;20101;-77
2022/08/17 13:43:10;;;;;;;7.25;3.05;;;31.10;55.00;;;;;;4971839;28;20605;-78
2022/08/17 13:45:46;;;;;;;5.00;3.10;;;31.00;54.80;;;;;;4972912;28;20170;-77
2022/08/17 13:48:14;;;;;;;13.35;3.75;;;31.10;55.00;;;;;;4972471;28;20034;-78